Time,TemperatureF,DewpointF,PressureIn,WindDirection,WindDirectionDegrees,WindSpeedMPH,WindSpeedGustMPH,Humidity,HourlyPrecipIn,Conditions,Clouds,dailyrainin,SoftwareType,DateUTC
2013-07-27 00:00:00,64.8,55.5,30.04,West,269,0.0,0.0,72,0.00,,,0.00,VWS V14.01,2013-07-27 04:00:00,
2013-07-27 00:01:00,64.8,55.5,30.04,West,269,0.0,0.0,72,0.00,,,0.00,VWS V14.01,2013-07-27 04:01:00,
2013-07-27 00:02:00,64.8,55.5,30.04,West,269,0.0,0.0,72,0.00,,,0.00,VWS V14.01,2013-07-27 04:02:00,
2013-07-27 00:03:00,64.8,55.5,30.04,West,269,0.0,0.0,72,0.00,,,0.00,VWS V14.01,2013-07-27 04:03:00,
2013-07-27 00:05:00,64.8,55.5,30.04,West,269,0.0,3.1,72,0.00,,,0.00,VWS V14.01,2013-07-27 04:05:00,
2013-07-27 00:08:00,64.4,55.6,30.04,West,269,0.0,0.0,73,0.00,,,0.00,VWS V14.01,2013-07-27 04:08:00,
2013-07-27 00:10:00,64.4,55.6,30.04,West,269,0.0,0.0,73,0.00,,,0.00,VWS V14.01,2013-07-27 04:10:00,
2013-07-27 00:13:00,64.2,55.8,30.04,West,269,0.0,2.7,74,0.00,,,0.00,VWS V14.01,2013-07-27 04:13:00,
2013-07-27 00:15:00,64.2,55.8,30.04,West,269,0.0,2.7,74,0.00,,,0.00,VWS V14.01,2013-07-27 04:15:00,
2013-07-27 00:18:00,64.0,56.0,30.04,West,263,4.9,4.9,75,0.00,,,0.00,VWS V14.01,2013-07-27 04:18:00,
2013-07-27 00:20:00,64.0,56.0,30.04,West,263,0.0,4.9,75,0.00,,,0.00,VWS V14.01,2013-07-27 04:20:00,
2013-07-27 00:23:00,64.0,56.0,30.04,West,263,2.7,3.6,75,0.00,,,0.00,VWS V14.01,2013-07-27 04:23:00,
2013-07-27 00:25:00,63.9,55.8,30.04,West,263,2.7,3.6,75,0.00,,,0.00,VWS V14.01,2013-07-27 04:25:00,
2013-07-27 00:28:00,63.9,55.8,30.04,West,263,2.7,3.6,75,0.00,,,0.00,VWS V14.01,2013-07-27 04:28:00,
2013-07-27 00:30:00,63.7,56.0,30.04,West,263,3.6,3.6,76,0.00,,,0.00,VWS V14.01,2013-07-27 04:30:00,
2013-07-27 00:33:00,63.7,56.0,30.04,West,263,2.2,3.6,76,0.00,,,0.00,VWS V14.01,2013-07-27 04:33:00,
2013-07-27 00:35:00,63.7,56.0,30.04,West,263,0.0,3.6,76,0.00,,,0.00,VWS V14.01,2013-07-27 04:35:00,
2013-07-27 00:38:00,63.5,55.8,30.04,West,263,2.7,3.1,76,0.00,,,0.00,VWS V14.01,2013-07-27 04:38:00,
2013-07-27 00:40:00,63.5,56.2,30.04,West,263,2.2,3.1,77,0.00,,,0.00,VWS V14.01,2013-07-27 04:40:00,
2013-07-27 00:43:00,63.5,56.2,30.04,West,263,0.0,2.2,77,0.00,,,0.00,VWS V14.01,2013-07-27 04:43:00,
2013-07-27 00:45:00,63.5,56.2,30.04,West,263,0.0,3.1,77,0.00,,,0.00,VWS V14.01,2013-07-27 04:45:00,
2013-07-27 00:48:00,63.5,56.2,30.04,West,263,0.0,3.1,77,0.00,,,0.00,VWS V14.01,2013-07-27 04:48:00,
2013-07-27 00:50:00,63.5,56.2,30.04,West,263,0.0,3.1,77,0.00,,,0.00,VWS V14.01,2013-07-27 04:50:00,
2013-07-27 00:53:00,63.3,56.0,30.04,West,263,0.0,2.7,77,0.00,,,0.00,VWS V14.01,2013-07-27 04:53:00,
2013-07-27 00:55:00,63.3,56.0,30.04,West,263,0.0,2.7,77,0.00,,,0.00,VWS V14.01,2013-07-27 04:55:00,
2013-07-27 00:58:00,63.3,56.0,30.04,West,263,0.0,2.7,77,0.00,,,0.00,VWS V14.01,2013-07-27 04:58:00,
2013-07-27 01:00:00,63.3,56.0,30.04,West,263,0.0,2.7,77,0.00,,,0.00,VWS V14.01,2013-07-27 05:00:00,
2013-07-27 01:03:00,63.1,55.8,30.04,West,263,0.0,0.0,77,0.00,,,0.00,VWS V14.01,2013-07-27 05:03:00,
2013-07-27 01:05:00,63.1,55.8,30.04,West,263,0.0,0.0,77,0.00,,,0.00,VWS V14.01,2013-07-27 05:05:00,
2013-07-27 01:08:00,63.1,55.8,30.04,West,263,0.0,0.0,77,0.00,,,0.00,VWS V14.01,2013-07-27 05:08:00,
2013-07-27 01:10:00,63.1,55.8,30.04,West,263,0.0,0.0,77,0.00,,,0.00,VWS V14.01,2013-07-27 05:10:00,
2013-07-27 01:13:00,63.1,55.8,30.04,West,263,0.0,0.0,77,0.00,,,0.00,VWS V14.01,2013-07-27 05:13:00,
2013-07-27 01:15:00,66.0,59.0,30.04,West,263,0.0,0.0,78,0.00,,,0.00,VWS V14.01,2013-07-27 05:15:00,
2013-07-27 01:18:00,63.5,59.9,30.04,West,263,0.0,0.0,88,0.00,,,0.00,VWS V14.01,2013-07-27 05:18:00,
2013-07-27 01:20:00,62.6,59.3,30.04,West,263,0.0,0.0,89,0.00,,,0.00,VWS V14.01,2013-07-27 05:20:00,
2013-07-27 01:23:00,61.9,59.2,30.04,West,263,3.1,3.1,91,0.00,,,0.00,VWS V14.01,2013-07-27 05:23:00,
2013-07-27 01:25:00,61.7,59.0,30.04,West,263,0.0,3.1,91,0.00,,,0.00,VWS V14.01,2013-07-27 05:25:00,
2013-07-27 01:28:00,61.7,59.0,30.04,West,263,2.7,3.1,91,0.00,,,0.00,VWS V14.01,2013-07-27 05:28:00,
2013-07-27 01:30:00,61.7,59.0,30.04,West,263,2.7,3.1,91,0.00,,,0.00,VWS V14.01,2013-07-27 05:30:00,
2013-07-27 01:33:00,61.7,59.0,30.04,West,263,0.0,3.1,91,0.00,,,0.00,VWS V14.01,2013-07-27 05:33:00,
2013-07-27 01:35:00,61.7,59.0,30.04,West,263,0.0,3.1,91,0.00,,,0.00,VWS V14.01,2013-07-27 05:35:00,
2013-07-27 01:38:00,61.3,58.7,30.04,West,263,2.2,3.1,91,0.00,,,0.00,VWS V14.01,2013-07-27 05:38:00,
2013-07-27 01:40:00,61.3,58.7,30.04,West,263,2.2,3.1,91,0.00,,,0.00,VWS V14.01,2013-07-27 05:40:00,
2013-07-27 01:43:00,61.2,58.5,30.04,West,263,2.7,3.1,91,0.00,,,0.00,VWS V14.01,2013-07-27 05:43:00,
2013-07-27 01:45:00,61.2,58.5,30.04,West,263,2.7,3.1,91,0.00,,,0.00,VWS V14.01,2013-07-27 05:45:00,
2013-07-27 01:48:00,61.0,58.3,30.04,West,263,3.1,3.1,91,0.00,,,0.00,VWS V14.01,2013-07-27 05:48:00,
2013-07-27 01:50:00,61.0,58.3,30.04,West,263,3.1,3.1,91,0.00,,,0.00,VWS V14.01,2013-07-27 05:50:00,
2013-07-27 01:53:00,61.0,58.6,30.04,West,263,2.7,3.6,92,0.00,,,0.00,VWS V14.01,2013-07-27 05:53:00,
2013-07-27 01:55:00,60.8,58.5,30.04,West,263,0.0,3.6,92,0.00,,,0.00,VWS V14.01,2013-07-27 05:55:00,
2013-07-27 01:58:00,60.8,58.5,30.04,West,263,3.1,3.6,92,0.00,,,0.00,VWS V14.01,2013-07-27 05:58:00,
2013-07-27 02:00:00,60.8,58.5,30.04,West,263,2.2,3.6,92,0.00,,,0.00,VWS V14.01,2013-07-27 06:00:00,
2013-07-27 02:03:00,60.6,58.3,30.04,West,263,2.2,3.6,92,0.00,,,0.00,VWS V14.01,2013-07-27 06:03:00,
2013-07-27 02:05:00,60.6,58.3,30.04,West,263,0.0,3.6,92,0.00,,,0.00,VWS V14.01,2013-07-27 06:05:00,
2013-07-27 02:08:00,60.6,58.3,30.04,West,263,2.7,2.7,92,0.00,,,0.00,VWS V14.01,2013-07-27 06:08:00,
2013-07-27 02:10:00,60.6,58.3,30.04,West,263,3.1,3.1,92,0.00,,,0.00,VWS V14.01,2013-07-27 06:10:00,
2013-07-27 02:13:00,60.6,58.6,30.04,West,263,2.7,3.1,93,0.00,,,0.00,VWS V14.01,2013-07-27 06:13:00,
2013-07-27 02:15:00,60.4,58.4,30.04,West,263,2.2,3.6,93,0.00,,,0.00,VWS V14.01,2013-07-27 06:15:00,
2013-07-27 02:18:00,60.4,58.4,30.04,West,263,3.1,3.6,93,0.00,,,0.00,VWS V14.01,2013-07-27 06:18:00,
2013-07-27 02:20:00,60.4,58.4,30.04,West,263,3.1,3.6,93,0.00,,,0.00,VWS V14.01,2013-07-27 06:20:00,
2013-07-27 02:23:00,60.4,58.4,30.04,West,263,2.7,4.0,93,0.00,,,0.00,VWS V14.01,2013-07-27 06:23:00,
2013-07-27 02:25:00,60.4,58.4,30.04,West,263,2.2,4.0,93,0.00,,,0.00,VWS V14.01,2013-07-27 06:25:00,
2013-07-27 02:28:00,60.3,58.2,30.04,West,263,0.0,3.1,93,0.00,,,0.00,VWS V14.01,2013-07-27 06:28:00,
2013-07-27 02:30:00,60.3,58.2,30.04,West,263,0.0,3.1,93,0.00,,,0.00,VWS V14.01,2013-07-27 06:30:00,
2013-07-27 02:33:00,60.1,58.0,30.04,West,263,0.0,2.7,93,0.00,,,0.00,VWS V14.01,2013-07-27 06:33:00,
2013-07-27 02:35:00,60.1,58.0,30.04,West,263,0.0,2.7,93,0.00,,,0.00,VWS V14.01,2013-07-27 06:35:00,
2013-07-27 02:38:00,59.9,57.9,30.04,West,263,0.0,0.0,93,0.00,,,0.00,VWS V14.01,2013-07-27 06:38:00,
2013-07-27 02:40:00,59.9,57.9,30.04,West,263,0.0,0.0,93,0.00,,,0.00,VWS V14.01,2013-07-27 06:40:00,
2013-07-27 02:43:00,59.9,57.9,30.04,West,263,0.0,0.0,93,0.00,,,0.00,VWS V14.01,2013-07-27 06:43:00,
2013-07-27 02:45:00,59.9,57.9,30.04,West,263,0.0,0.0,93,0.00,,,0.00,VWS V14.01,2013-07-27 06:45:00,
2013-07-27 02:48:00,59.7,57.7,30.04,West,263,0.0,0.0,93,0.00,,,0.00,VWS V14.01,2013-07-27 06:48:00,
2013-07-27 02:50:00,59.7,57.7,30.04,West,263,0.0,0.0,93,0.00,,,0.00,VWS V14.01,2013-07-27 06:50:00,
2013-07-27 02:53:00,59.7,57.7,30.04,West,263,2.2,2.7,93,0.00,,,0.00,VWS V14.01,2013-07-27 06:53:00,
2013-07-27 02:55:00,59.5,57.8,30.04,West,263,2.2,2.7,94,0.00,,,0.00,VWS V14.01,2013-07-27 06:55:00,
2013-07-27 02:58:00,59.5,57.8,30.04,West,263,2.2,2.7,94,0.00,,,0.00,VWS V14.01,2013-07-27 06:58:00,
2013-07-27 03:00:00,59.4,57.6,30.04,West,263,2.2,2.7,94,0.00,,,0.00,VWS V14.01,2013-07-27 07:00:00,
2013-07-27 03:03:00,59.4,57.6,30.04,West,263,0.0,2.7,94,0.00,,,0.00,VWS V14.01,2013-07-27 07:03:00,
2013-07-27 03:05:00,59.4,57.6,30.04,West,263,2.2,2.7,94,0.00,,,0.00,VWS V14.01,2013-07-27 07:05:00,
2013-07-27 03:09:00,59.2,57.5,30.04,West,263,2.7,2.7,94,0.00,,,0.00,VWS V14.01,2013-07-27 07:09:00,
2013-07-27 03:10:00,59.2,57.5,30.04,West,263,3.1,3.1,94,0.00,,,0.00,VWS V14.01,2013-07-27 07:10:00,
2013-07-27 03:14:00,59.2,57.5,30.04,West,263,2.7,3.1,94,0.00,,,0.00,VWS V14.01,2013-07-27 07:14:00,
2013-07-27 03:15:00,59.2,57.5,30.04,West,263,2.7,3.1,94,0.00,,,0.00,VWS V14.01,2013-07-27 07:15:00,
2013-07-27 03:19:00,59.0,57.3,30.04,West,263,0.0,3.1,94,0.00,,,0.00,VWS V14.01,2013-07-27 07:19:00,
2013-07-27 03:20:00,59.0,57.3,30.04,West,263,0.0,3.1,94,0.00,,,0.00,VWS V14.01,2013-07-27 07:20:00,
2013-07-27 03:24:00,59.0,57.3,30.04,West,263,3.1,3.1,94,0.00,,,0.00,VWS V14.01,2013-07-27 07:24:00,
2013-07-27 03:25:00,59.0,57.3,30.04,West,263,2.7,3.1,94,0.00,,,0.00,VWS V14.01,2013-07-27 07:25:00,
2013-07-27 03:29:00,59.0,57.3,30.04,West,263,2.7,3.6,94,0.00,,,0.00,VWS V14.01,2013-07-27 07:29:00,
2013-07-27 03:30:00,59.0,57.3,30.04,West,263,2.7,3.6,94,0.00,,,0.00,VWS V14.01,2013-07-27 07:30:00,
2013-07-27 03:34:00,58.8,57.1,30.04,West,263,2.2,2.7,94,0.00,,,0.00,VWS V14.01,2013-07-27 07:34:00,
2013-07-27 03:35:00,58.8,57.1,30.04,West,263,2.7,2.7,94,0.00,,,0.00,VWS V14.01,2013-07-27 07:35:00,
2013-07-27 03:39:00,58.8,57.1,30.04,West,263,0.0,2.7,94,0.00,,,0.00,VWS V14.01,2013-07-27 07:39:00,
2013-07-27 03:40:00,58.8,57.4,30.04,West,263,0.0,2.7,95,0.00,,,0.00,VWS V14.01,2013-07-27 07:40:00,
2013-07-27 03:44:00,58.6,57.2,30.04,West,263,0.0,0.0,95,0.00,,,0.00,VWS V14.01,2013-07-27 07:44:00,
2013-07-27 03:45:00,58.6,57.2,30.04,West,263,0.0,0.0,95,0.00,,,0.00,VWS V14.01,2013-07-27 07:45:00,
2013-07-27 03:49:00,58.6,57.2,30.04,West,263,0.0,0.0,95,0.00,,,0.00,VWS V14.01,2013-07-27 07:49:00,
2013-07-27 03:50:00,58.8,57.4,30.04,West,263,0.0,0.0,95,0.00,,,0.00,VWS V14.01,2013-07-27 07:50:00,
2013-07-27 03:54:00,58.6,57.2,30.04,West,263,0.0,0.0,95,0.00,,,0.00,VWS V14.01,2013-07-27 07:54:00,
2013-07-27 03:55:00,58.6,57.2,30.04,West,263,0.0,0.0,95,0.00,,,0.00,VWS V14.01,2013-07-27 07:55:00,
2013-07-27 03:59:00,58.5,57.0,30.04,West,263,2.7,3.1,95,0.00,,,0.00,VWS V14.01,2013-07-27 07:59:00,
2013-07-27 04:00:00,58.5,57.0,30.04,West,263,2.7,3.1,95,0.00,,,0.00,VWS V14.01,2013-07-27 08:00:00,
2013-07-27 04:04:00,58.5,57.0,30.04,West,263,0.0,3.1,95,0.00,,,0.00,VWS V14.01,2013-07-27 08:04:00,
2013-07-27 04:05:00,58.5,57.0,30.04,West,263,0.0,3.1,95,0.00,,,0.00,VWS V14.01,2013-07-27 08:05:00,
2013-07-27 04:09:00,58.5,57.0,30.04,West,263,0.0,0.0,95,0.00,,,0.00,VWS V14.01,2013-07-27 08:09:00,
2013-07-27 04:10:00,58.5,57.0,30.04,West,263,0.0,0.0,95,0.00,,,0.00,VWS V14.01,2013-07-27 08:10:00,
2013-07-27 04:14:00,58.3,56.9,30.04,West,263,0.0,0.0,95,0.00,,,0.00,VWS V14.01,2013-07-27 08:14:00,
2013-07-27 04:15:00,58.3,56.9,30.04,West,263,0.0,0.0,95,0.00,,,0.00,VWS V14.01,2013-07-27 08:15:00,
2013-07-27 04:19:00,58.3,56.9,30.04,West,263,0.0,0.0,95,0.00,,,0.00,VWS V14.01,2013-07-27 08:19:00,
2013-07-27 04:20:00,58.3,56.9,30.04,West,263,0.0,0.0,95,0.00,,,0.00,VWS V14.01,2013-07-27 08:20:00,
2013-07-27 04:24:00,58.1,56.7,30.04,West,263,0.0,0.0,95,0.00,,,0.00,VWS V14.01,2013-07-27 08:24:00,
2013-07-27 04:25:00,58.1,56.7,30.04,West,263,0.0,0.0,95,0.00,,,0.00,VWS V14.01,2013-07-27 08:25:00,
2013-07-27 04:29:00,58.1,56.7,30.04,West,263,0.0,0.0,95,0.00,,,0.00,VWS V14.01,2013-07-27 08:29:00,
2013-07-27 04:30:00,58.1,56.7,30.04,West,263,0.0,0.0,95,0.00,,,0.00,VWS V14.01,2013-07-27 08:30:00,
2013-07-27 04:34:00,58.1,56.7,30.04,West,263,0.0,0.0,95,0.00,,,0.00,VWS V14.01,2013-07-27 08:34:00,
2013-07-27 04:35:00,58.1,56.7,30.04,West,263,0.0,0.0,95,0.00,,,0.00,VWS V14.01,2013-07-27 08:35:00,
2013-07-27 04:39:00,58.1,56.7,30.04,West,263,2.2,2.2,95,0.00,,,0.00,VWS V14.01,2013-07-27 08:39:00,
2013-07-27 04:40:00,58.1,56.7,30.04,West,263,2.2,2.2,95,0.00,,,0.00,VWS V14.01,2013-07-27 08:40:00,
2013-07-27 04:44:00,57.9,56.5,30.04,West,263,0.0,2.7,95,0.00,,,0.00,VWS V14.01,2013-07-27 08:44:00,
2013-07-27 04:45:00,57.9,56.5,30.04,West,263,0.0,2.7,95,0.00,,,0.00,VWS V14.01,2013-07-27 08:45:00,
2013-07-27 04:50:00,57.9,56.5,30.04,West,263,0.0,0.0,95,0.00,,,0.00,VWS V14.01,2013-07-27 08:50:00,
2013-07-27 04:55:00,57.7,56.6,30.04,West,263,0.0,0.0,96,0.00,,,0.00,VWS V14.01,2013-07-27 08:55:00,
2013-07-27 05:00:00,57.7,56.6,30.04,West,263,0.0,0.0,96,0.00,,,0.00,VWS V14.01,2013-07-27 09:00:00,
2013-07-27 05:05:00,57.6,56.4,30.04,West,263,0.0,0.0,96,0.00,,,0.00,VWS V14.01,2013-07-27 09:05:00,
2013-07-27 05:10:00,57.6,56.4,30.04,West,263,0.0,0.0,96,0.00,,,0.00,VWS V14.01,2013-07-27 09:10:00,
2013-07-27 05:15:00,57.6,56.4,30.04,West,263,0.0,0.0,96,0.00,,,0.00,VWS V14.01,2013-07-27 09:15:00,
2013-07-27 05:20:00,57.6,56.4,30.04,West,263,0.0,0.0,96,0.00,,,0.00,VWS V14.01,2013-07-27 09:20:00,
2013-07-27 05:25:00,57.4,56.2,30.04,West,263,0.0,0.0,96,0.00,,,0.00,VWS V14.01,2013-07-27 09:25:00,
2013-07-27 05:30:00,57.4,56.2,30.04,West,263,0.0,0.0,96,0.00,,,0.00,VWS V14.01,2013-07-27 09:30:00,
2013-07-27 05:35:00,57.4,56.2,30.04,West,263,0.0,0.0,96,0.00,,,0.00,VWS V14.01,2013-07-27 09:35:00,
2013-07-27 05:40:00,57.2,56.1,30.04,West,263,0.0,0.0,96,0.00,,,0.00,VWS V14.01,2013-07-27 09:40:00,
2013-07-27 05:45:00,57.2,56.1,30.04,West,263,0.0,0.0,96,0.00,,,0.00,VWS V14.01,2013-07-27 09:45:00,
2013-07-27 05:50:00,57.2,56.1,30.04,West,263,0.0,0.0,96,0.00,,,0.00,VWS V14.01,2013-07-27 09:50:00,
2013-07-27 05:55:00,57.2,56.1,30.04,West,263,0.0,0.0,96,0.00,,,0.00,VWS V14.01,2013-07-27 09:55:00,
2013-07-27 06:00:00,57.2,56.1,30.04,West,263,0.0,0.0,96,0.00,,,0.00,VWS V14.01,2013-07-27 10:00:00,
2013-07-27 06:05:00,57.0,55.9,30.04,West,263,0.0,0.0,96,0.00,,,0.00,VWS V14.01,2013-07-27 10:05:00,
2013-07-27 06:10:00,57.2,56.1,30.04,West,263,0.0,0.0,96,0.00,,,0.00,VWS V14.01,2013-07-27 10:10:00,
2013-07-27 06:15:00,57.2,56.1,30.04,West,263,0.0,0.0,96,0.00,,,0.00,VWS V14.01,2013-07-27 10:15:00,
2013-07-27 06:20:00,57.2,56.1,30.04,West,263,0.0,0.0,96,0.00,,,0.00,VWS V14.01,2013-07-27 10:20:00,
2013-07-27 06:25:00,57.4,56.2,30.04,West,263,0.0,0.0,96,0.00,,,0.00,VWS V14.01,2013-07-27 10:25:00,
2013-07-27 06:30:00,57.4,56.2,30.04,West,263,0.0,0.0,96,0.00,,,0.00,VWS V14.01,2013-07-27 10:30:00,
2013-07-27 06:35:00,57.6,56.4,30.04,West,263,0.0,0.0,96,0.00,,,0.00,VWS V14.01,2013-07-27 10:35:00,
2013-07-27 06:40:00,57.6,56.4,30.04,West,263,0.0,0.0,96,0.00,,,0.00,VWS V14.01,2013-07-27 10:40:00,
2013-07-27 06:41:00,57.6,56.4,30.04,West,263,0.0,0.0,96,0.00,,,0.00,VWS V14.01,2013-07-27 10:41:00,
2013-07-27 06:45:00,57.7,56.6,30.04,West,263,0.0,0.0,96,0.00,,,0.00,VWS V14.01,2013-07-27 10:45:00,
2013-07-27 06:46:00,57.9,56.8,30.04,West,263,0.0,0.0,96,0.00,,,0.00,VWS V14.01,2013-07-27 10:46:00,
2013-07-27 06:50:00,58.1,57.3,30.04,West,263,0.0,0.0,97,0.00,,,0.00,VWS V14.01,2013-07-27 10:50:00,
2013-07-27 06:51:00,58.1,57.3,30.04,West,263,0.0,0.0,97,0.00,,,0.00,VWS V14.01,2013-07-27 10:51:00,
2013-07-27 06:55:00,58.3,57.4,30.04,West,263,0.0,0.0,97,0.00,,,0.00,VWS V14.01,2013-07-27 10:55:00,
2013-07-27 06:56:00,58.5,57.6,30.04,West,263,0.0,0.0,97,0.00,,,0.00,VWS V14.01,2013-07-27 10:56:00,
2013-07-27 07:00:00,58.6,57.8,30.04,West,263,0.0,0.0,97,0.00,,,0.00,VWS V14.01,2013-07-27 11:00:00,
2013-07-27 07:01:00,58.6,57.8,30.04,West,263,0.0,0.0,97,0.00,,,0.00,VWS V14.01,2013-07-27 11:01:00,
2013-07-27 07:05:00,59.0,57.9,30.04,West,263,0.0,0.0,96,0.00,,,0.00,VWS V14.01,2013-07-27 11:05:00,
2013-07-27 07:06:00,59.0,57.9,30.04,West,263,0.0,0.0,96,0.00,,,0.00,VWS V14.01,2013-07-27 11:06:00,
2013-07-27 07:10:00,59.4,58.2,30.04,West,263,0.0,0.0,96,0.00,,,0.00,VWS V14.01,2013-07-27 11:10:00,
2013-07-27 07:11:00,59.4,58.2,30.04,West,263,0.0,0.0,96,0.00,,,0.00,VWS V14.01,2013-07-27 11:11:00,
2013-07-27 07:15:00,59.7,58.9,30.04,West,263,0.0,0.0,97,0.00,,,0.00,VWS V14.01,2013-07-27 11:15:00,
2013-07-27 07:16:00,59.7,58.9,30.04,West,263,0.0,0.0,97,0.00,,,0.00,VWS V14.01,2013-07-27 11:16:00,
2013-07-27 07:20:00,60.1,59.2,30.04,West,263,0.0,0.0,97,0.00,,,0.00,VWS V14.01,2013-07-27 11:20:00,
2013-07-27 07:21:00,60.3,59.4,30.04,West,263,0.0,0.0,97,0.00,,,0.00,VWS V14.01,2013-07-27 11:21:00,
2013-07-27 07:25:00,60.6,59.8,30.04,West,263,0.0,0.0,97,0.00,,,0.00,VWS V14.01,2013-07-27 11:25:00,
2013-07-27 07:26:00,61.0,59.8,30.04,West,263,0.0,0.0,96,0.00,,,0.00,VWS V14.01,2013-07-27 11:26:00,
2013-07-27 07:30:00,61.5,60.4,30.04,West,263,0.0,0.0,96,0.00,,,0.00,VWS V14.01,2013-07-27 11:30:00,
2013-07-27 07:31:00,61.7,60.5,30.04,West,263,0.0,0.0,96,0.00,,,0.00,VWS V14.01,2013-07-27 11:31:00,
2013-07-27 07:35:00,62.1,61.2,30.04,West,263,0.0,0.0,97,0.00,,,0.00,VWS V14.01,2013-07-27 11:35:00,
2013-07-27 07:36:00,62.2,61.4,30.04,West,263,0.0,0.0,97,0.00,,,0.00,VWS V14.01,2013-07-27 11:36:00,
2013-07-27 07:40:00,62.6,61.5,30.04,West,263,0.0,0.0,96,0.00,,,0.00,VWS V14.01,2013-07-27 11:40:00,
2013-07-27 07:41:00,62.8,61.6,30.04,West,263,0.0,0.0,96,0.00,,,0.00,VWS V14.01,2013-07-27 11:41:00,
2013-07-27 07:45:00,63.0,61.8,30.04,West,263,0.0,0.0,96,0.00,,,0.00,VWS V14.01,2013-07-27 11:45:00,
2013-07-27 07:46:00,63.3,62.2,30.04,West,263,0.0,0.0,96,0.00,,,0.00,VWS V14.01,2013-07-27 11:46:00,
2013-07-27 07:50:00,64.0,62.9,30.04,West,263,0.0,0.0,96,0.00,,,0.00,VWS V14.01,2013-07-27 11:50:00,
2013-07-27 07:51:00,64.2,63.1,30.04,West,263,0.0,0.0,96,0.00,,,0.00,VWS V14.01,2013-07-27 11:51:00,
2013-07-27 07:55:00,65.5,64.3,30.04,West,263,0.0,0.0,96,0.00,,,0.00,VWS V14.01,2013-07-27 11:55:00,
2013-07-27 07:56:00,65.3,64.1,30.04,West,263,0.0,0.0,96,0.00,,,0.00,VWS V14.01,2013-07-27 11:56:00,
2013-07-27 08:00:00,65.8,64.7,30.04,West,263,0.0,0.0,96,0.00,,,0.00,VWS V14.01,2013-07-27 12:00:00,
2013-07-27 08:01:00,66.0,64.8,30.04,West,263,0.0,0.0,96,0.00,,,0.00,VWS V14.01,2013-07-27 12:01:00,
2013-07-27 08:05:00,66.2,65.0,30.04,West,263,0.0,0.0,96,0.00,,,0.00,VWS V14.01,2013-07-27 12:05:00,
2013-07-27 08:06:00,66.4,65.2,30.04,West,263,0.0,0.0,96,0.00,,,0.00,VWS V14.01,2013-07-27 12:06:00,
2013-07-27 08:10:00,67.1,65.9,30.04,West,263,0.0,0.0,96,0.00,,,0.00,VWS V14.01,2013-07-27 12:10:00,
2013-07-27 08:11:00,67.1,65.9,30.04,West,263,0.0,0.0,96,0.00,,,0.00,VWS V14.01,2013-07-27 12:11:00,
2013-07-27 08:15:00,66.9,65.8,30.04,West,263,0.0,0.0,96,0.00,,,0.00,VWS V14.01,2013-07-27 12:15:00,
2013-07-27 08:16:00,66.9,65.8,30.04,West,263,0.0,0.0,96,0.00,,,0.00,VWS V14.01,2013-07-27 12:16:00,
2013-07-27 08:20:00,67.1,65.9,30.04,West,263,0.0,0.0,96,0.00,,,0.00,VWS V14.01,2013-07-27 12:20:00,
2013-07-27 08:22:00,67.1,65.9,30.04,West,263,0.0,0.0,96,0.00,,,0.00,VWS V14.01,2013-07-27 12:22:00,
2013-07-27 08:25:00,67.3,66.1,30.04,West,263,0.0,4.0,96,0.00,,,0.00,VWS V14.01,2013-07-27 12:25:00,
2013-07-27 08:27:00,67.1,65.9,30.04,West,259,0.0,3.6,96,0.00,,,0.00,VWS V14.01,2013-07-27 12:27:00,
2013-07-27 08:30:00,67.3,66.1,30.04,West,260,3.6,5.8,96,0.00,,,0.00,VWS V14.01,2013-07-27 12:30:00,
2013-07-27 08:32:00,67.5,66.3,30.04,West,263,3.1,5.4,96,0.00,,,0.00,VWS V14.01,2013-07-27 12:32:00,
2013-07-27 08:35:00,67.6,66.5,30.04,West,275,3.1,6.7,96,0.00,,,0.00,VWS V14.01,2013-07-27 12:35:00,
2013-07-27 08:37:00,67.8,66.6,30.04,WNW,284,3.6,5.4,96,0.00,,,0.00,VWS V14.01,2013-07-27 12:37:00,
2013-07-27 08:40:00,67.8,66.6,30.04,West,275,2.7,6.3,96,0.00,,,0.00,VWS V14.01,2013-07-27 12:40:00,
2013-07-27 08:42:00,68.0,66.8,30.04,West,274,0.0,2.7,96,0.00,,,0.00,VWS V14.01,2013-07-27 12:42:00,
2013-07-27 08:45:00,68.4,67.2,30.04,West,274,2.7,2.7,96,0.00,,,0.00,VWS V14.01,2013-07-27 12:45:00,
2013-07-27 08:47:00,68.4,66.9,30.04,West,278,3.1,5.8,95,0.00,,,0.00,VWS V14.01,2013-07-27 12:47:00,
2013-07-27 08:50:00,68.5,67.1,30.04,West,278,0.0,5.8,95,0.00,,,0.00,VWS V14.01,2013-07-27 12:50:00,
2013-07-27 08:52:00,68.7,67.2,30.04,West,278,0.0,3.6,95,0.00,,,0.00,VWS V14.01,2013-07-27 12:52:00,
2013-07-27 08:55:00,68.9,67.4,30.04,West,274,4.0,6.3,95,0.00,,,0.00,VWS V14.01,2013-07-27 12:55:00,
2013-07-27 08:57:00,68.9,67.4,30.04,West,271,0.0,8.1,95,0.00,,,0.00,VWS V14.01,2013-07-27 12:57:00,
2013-07-27 09:00:00,69.3,67.8,30.04,West,266,0.0,8.1,95,0.00,,,0.00,VWS V14.01,2013-07-27 13:00:00,
2013-07-27 09:02:00,69.6,68.1,30.04,West,276,0.0,6.7,95,0.00,,,0.00,VWS V14.01,2013-07-27 13:02:00,
2013-07-27 09:05:00,70.0,68.2,30.04,West,269,3.6,6.7,94,0.00,,,0.00,VWS V14.01,2013-07-27 13:05:00,
2013-07-27 09:07:00,70.0,68.2,30.04,West,263,3.6,6.3,94,0.00,,,0.00,VWS V14.01,2013-07-27 13:07:00,
2013-07-27 09:10:00,70.0,68.2,30.04,West,260,7.6,7.6,94,0.00,,,0.00,VWS V14.01,2013-07-27 13:10:00,
2013-07-27 09:12:00,70.0,68.2,30.04,West,277,4.0,7.6,94,0.00,,,0.00,VWS V14.01,2013-07-27 13:12:00,
2013-07-27 09:15:00,70.0,68.2,30.04,West,260,3.6,7.6,94,0.00,,,0.00,VWS V14.01,2013-07-27 13:15:00,
2013-07-27 09:17:00,70.0,68.2,30.04,WNW,295,2.7,7.2,94,0.00,,,0.00,VWS V14.01,2013-07-27 13:17:00,
2013-07-27 09:20:00,70.2,68.4,30.04,WSW,247,2.2,7.2,94,0.00,,,0.00,VWS V14.01,2013-07-27 13:20:00,
2013-07-27 09:22:00,70.2,68.1,30.04,West,261,2.2,7.6,93,0.00,,,0.00,VWS V14.01,2013-07-27 13:22:00,
2013-07-27 09:25:00,70.3,68.2,30.04,West,275,6.3,7.6,93,0.00,,,0.00,VWS V14.01,2013-07-27 13:25:00,
2013-07-27 09:27:00,70.5,68.4,30.04,West,273,3.6,6.3,93,0.00,,,0.00,VWS V14.01,2013-07-27 13:27:00,
2013-07-27 09:30:00,70.7,68.6,30.04,West,273,4.5,6.3,93,0.00,,,0.00,VWS V14.01,2013-07-27 13:30:00,
2013-07-27 09:32:00,70.9,68.8,30.04,West,273,0.0,4.5,93,0.00,,,0.00,VWS V14.01,2013-07-27 13:32:00,
2013-07-27 09:35:00,71.1,68.9,30.04,SW,231,0.0,4.5,93,0.00,,,0.00,VWS V14.01,2013-07-27 13:35:00,
2013-07-27 09:37:00,70.9,68.8,30.04,West,274,5.8,6.3,93,0.00,,,0.00,VWS V14.01,2013-07-27 13:37:00,
2013-07-27 09:40:00,70.9,68.8,30.04,WSW,258,3.1,6.3,93,0.00,,,0.00,VWS V14.01,2013-07-27 13:40:00,
2013-07-27 09:42:00,70.9,68.8,30.04,West,278,3.6,8.1,93,0.00,,,0.00,VWS V14.01,2013-07-27 13:42:00,
2013-07-27 09:45:00,70.9,68.4,30.04,SSW,213,0.0,8.1,92,0.00,,,0.00,VWS V14.01,2013-07-27 13:45:00,
2013-07-27 09:47:00,71.1,68.6,30.04,West,270,0.0,6.3,92,0.00,,,0.00,VWS V14.01,2013-07-27 13:47:00,
2013-07-27 09:50:00,71.1,68.6,30.04,WSW,248,0.0,6.3,92,0.00,,,0.00,VWS V14.01,2013-07-27 13:50:00,
2013-07-27 09:52:00,71.2,68.8,30.04,WSW,248,0.0,3.6,92,0.00,,,0.00,VWS V14.01,2013-07-27 13:52:00,
2013-07-27 09:55:00,71.4,69.0,30.04,WSW,248,0.0,3.6,92,0.00,,,0.00,VWS V14.01,2013-07-27 13:55:00,
2013-07-27 09:57:00,71.6,69.2,30.04,WSW,248,2.7,4.0,92,0.00,,,0.00,VWS V14.01,2013-07-27 13:57:00,
2013-07-27 10:00:00,71.6,69.2,30.04,WSW,248,0.0,4.0,92,0.00,,,0.00,VWS V14.01,2013-07-27 14:00:00,
2013-07-27 10:02:00,71.6,69.2,30.04,WSW,248,0.0,3.6,92,0.00,,,0.00,VWS V14.01,2013-07-27 14:02:00,
2013-07-27 10:05:00,71.8,69.0,30.04,West,277,2.2,5.4,91,0.00,,,0.00,VWS V14.01,2013-07-27 14:05:00,
2013-07-27 10:07:00,72.0,69.2,30.04,WNW,295,0.0,4.9,91,0.00,,,0.00,VWS V14.01,2013-07-27 14:07:00,
2013-07-27 10:10:00,72.1,69.4,30.04,WNW,295,3.1,4.9,91,0.00,,,0.00,VWS V14.01,2013-07-27 14:10:00,
2013-07-27 10:12:00,72.1,69.4,30.04,West,260,5.4,6.3,91,0.00,,,0.00,VWS V14.01,2013-07-27 14:12:00,
2013-07-27 10:15:00,72.3,69.6,30.04,West,278,2.7,6.3,91,0.00,,,0.00,VWS V14.01,2013-07-27 14:15:00,
2013-07-27 10:17:00,72.7,69.9,30.04,West,278,0.0,3.6,91,0.00,,,0.00,VWS V14.01,2013-07-27 14:17:00,
2013-07-27 10:20:00,72.9,70.1,30.04,WNW,285,3.6,4.0,91,0.00,,,0.00,VWS V14.01,2013-07-27 14:20:00,
2013-07-27 10:23:00,73.2,70.4,30.04,WSW,239,0.0,6.3,91,0.00,,,0.00,VWS V14.01,2013-07-27 14:23:00,
2013-07-27 10:25:00,73.2,70.4,30.04,WNW,287,3.6,6.3,91,0.00,,,0.00,VWS V14.01,2013-07-27 14:25:00,
2013-07-27 10:28:00,73.4,70.3,30.04,West,262,2.2,5.4,90,0.00,,,0.00,VWS V14.01,2013-07-27 14:28:00,
2013-07-27 10:30:00,73.4,70.3,30.04,West,262,5.4,5.4,90,0.00,,,0.00,VWS V14.01,2013-07-27 14:30:00,
2013-07-27 10:33:00,73.0,70.3,30.04,West,271,0.0,6.7,91,0.00,,,0.00,VWS V14.01,2013-07-27 14:33:00,
2013-07-27 10:35:00,73.0,70.3,30.04,West,271,2.7,6.7,91,0.00,,,0.00,VWS V14.01,2013-07-27 14:35:00,
2013-07-27 10:38:00,72.9,70.1,30.04,West,271,0.0,4.0,91,0.00,,,0.00,VWS V14.01,2013-07-27 14:38:00,
2013-07-27 10:40:00,73.0,69.9,30.04,West,271,0.0,4.0,90,0.00,,,0.00,VWS V14.01,2013-07-27 14:40:00,
2013-07-27 10:43:00,73.2,70.4,30.04,West,271,0.0,2.7,91,0.00,,,0.00,VWS V14.01,2013-07-27 14:43:00,
2013-07-27 10:45:00,73.0,70.3,30.04,West,271,0.0,3.6,91,0.00,,,0.00,VWS V14.01,2013-07-27 14:45:00,
2013-07-27 10:48:00,73.0,69.9,30.04,West,271,0.0,3.6,90,0.00,,,0.00,VWS V14.01,2013-07-27 14:48:00,
2013-07-27 10:50:00,73.0,69.9,30.04,West,271,0.0,3.6,90,0.00,,,0.00,VWS V14.01,2013-07-27 14:50:00,
2013-07-27 10:53:00,73.0,69.9,30.04,West,271,0.0,0.0,90,0.00,,,0.00,VWS V14.01,2013-07-27 14:53:00,
2013-07-27 10:55:00,73.0,69.9,30.04,West,271,3.6,4.0,90,0.00,,,0.00,VWS V14.01,2013-07-27 14:55:00,
2013-07-27 10:58:00,73.2,70.1,30.04,West,271,3.1,4.5,90,0.00,,,0.00,VWS V14.01,2013-07-27 14:58:00,
2013-07-27 11:00:00,73.4,70.3,30.04,West,268,4.0,4.5,90,0.00,,,0.00,VWS V14.01,2013-07-27 15:00:00,
2013-07-27 11:03:00,73.6,70.5,30.04,West,268,2.7,4.0,90,0.00,,,0.00,VWS V14.01,2013-07-27 15:03:00,
2013-07-27 11:05:00,73.6,70.5,30.04,West,268,0.0,4.0,90,0.00,,,0.00,VWS V14.01,2013-07-27 15:05:00,
2013-07-27 11:08:00,73.6,70.5,30.04,West,268,0.0,3.1,90,0.00,,,0.00,VWS V14.01,2013-07-27 15:08:00,
2013-07-27 11:10:00,73.8,70.7,30.04,West,268,0.0,3.1,90,0.00,,,0.00,VWS V14.01,2013-07-27 15:10:00,
2013-07-27 11:13:00,74.1,71.0,30.04,West,268,0.0,2.7,90,0.00,,,0.00,VWS V14.01,2013-07-27 15:13:00,
2013-07-27 11:15:00,74.3,71.2,30.04,West,268,0.0,2.7,90,0.00,,,0.00,VWS V14.01,2013-07-27 15:15:00,
2013-07-27 11:18:00,74.5,71.4,30.04,NW,304,2.7,6.7,90,0.00,,,0.00,VWS V14.01,2013-07-27 15:18:00,
2013-07-27 11:20:00,74.8,71.7,30.04,WSW,239,3.1,6.7,90,0.00,,,0.00,VWS V14.01,2013-07-27 15:20:00,
2013-07-27 11:23:00,75.0,71.9,30.04,SE,146,5.8,5.8,90,0.00,,,0.00,VWS V14.01,2013-07-27 15:23:00,
2013-07-27 11:25:00,75.0,71.6,30.04,SSE,163,4.9,7.6,89,0.00,,,0.00,VWS V14.01,2013-07-27 15:25:00,
2013-07-27 11:28:00,75.2,71.7,30.04,SW,234,4.0,7.6,89,0.00,,,0.00,VWS V14.01,2013-07-27 15:28:00,
2013-07-27 11:30:00,75.2,71.7,30.04,South,180,3.6,7.6,89,0.00,,,0.00,VWS V14.01,2013-07-27 15:30:00,
2013-07-27 11:33:00,75.2,71.4,30.04,West,279,2.2,4.9,88,0.00,,,0.00,VWS V14.01,2013-07-27 15:33:00,
2013-07-27 11:35:00,75.4,71.6,30.04,SSE,156,2.7,4.9,88,0.00,,,0.00,VWS V14.01,2013-07-27 15:35:00,
2013-07-27 11:39:00,75.7,71.9,30.04,South,170,4.0,8.1,88,0.00,,,0.00,VWS V14.01,2013-07-27 15:39:00,
2013-07-27 11:40:00,75.7,71.9,30.04,SW,221,0.0,8.1,88,0.00,,,0.00,VWS V14.01,2013-07-27 15:40:00,
2013-07-27 11:44:00,75.9,72.1,30.04,West,271,0.0,5.8,88,0.00,,,0.00,VWS V14.01,2013-07-27 15:44:00,
2013-07-27 11:45:00,75.9,72.1,30.04,SW,229,2.7,5.8,88,0.00,,,0.00,VWS V14.01,2013-07-27 15:45:00,
2013-07-27 11:49:00,75.7,71.9,30.04,South,170,4.0,5.4,88,0.00,,,0.00,VWS V14.01,2013-07-27 15:49:00,
2013-07-27 11:50:00,75.7,71.9,30.04,South,187,3.6,5.4,88,0.00,,,0.00,VWS V14.01,2013-07-27 15:50:00,
2013-07-27 11:54:00,75.4,71.2,30.04,South,178,3.1,5.8,87,0.00,,,0.00,VWS V14.01,2013-07-27 15:54:00,
2013-07-27 11:55:00,75.4,71.2,30.04,SE,143,3.6,5.8,87,0.00,,,0.00,VWS V14.01,2013-07-27 15:55:00,
2013-07-27 11:59:00,75.6,71.4,30.04,SSE,156,4.0,5.8,87,0.00,,,0.00,VWS V14.01,2013-07-27 15:59:00,
2013-07-27 12:00:00,75.6,71.4,30.04,SSE,157,4.0,5.8,87,0.00,,,0.00,VWS V14.01,2013-07-27 16:00:00,
2013-07-27 12:04:00,76.1,71.9,30.04,SW,214,2.7,6.3,87,0.00,,,0.00,VWS V14.01,2013-07-27 16:04:00,
2013-07-27 12:05:00,76.3,72.1,30.04,SSW,210,3.6,6.3,87,0.00,,,0.00,VWS V14.01,2013-07-27 16:05:00,
2013-07-27 12:09:00,77.0,72.5,30.04,SW,218,0.0,4.0,86,0.00,,,0.00,VWS V14.01,2013-07-27 16:09:00,
2013-07-27 12:10:00,77.2,72.7,30.04,SW,218,0.0,4.0,86,0.00,,,0.00,VWS V14.01,2013-07-27 16:10:00,
2013-07-27 12:14:00,76.8,72.3,30.04,South,176,4.0,5.4,86,0.00,,,0.00,VWS V14.01,2013-07-27 16:14:00,
2013-07-27 12:15:00,76.8,72.3,30.04,South,173,4.0,6.3,86,0.00,,,0.00,VWS V14.01,2013-07-27 16:15:00,
2013-07-27 12:19:00,76.3,71.4,30.04,West,271,3.1,5.8,85,0.00,,,0.00,VWS V14.01,2013-07-27 16:19:00,
2013-07-27 12:20:00,76.1,71.3,30.04,West,262,2.2,5.8,85,0.00,,,0.00,VWS V14.01,2013-07-27 16:20:00,
2013-07-27 12:24:00,76.3,71.4,30.04,West,272,0.0,4.0,85,0.00,,,0.00,VWS V14.01,2013-07-27 16:24:00,
2013-07-27 12:25:00,76.3,71.4,30.04,West,268,4.0,4.0,85,0.00,,,0.00,VWS V14.01,2013-07-27 16:25:00,
2013-07-27 12:29:00,77.2,72.0,30.04,SSE,151,6.3,6.3,84,0.00,,,0.00,VWS V14.01,2013-07-27 16:29:00,
2013-07-27 12:30:00,77.2,72.0,30.04,SSE,163,4.9,6.3,84,0.00,,,0.00,VWS V14.01,2013-07-27 16:30:00,
2013-07-27 12:34:00,77.5,72.3,30.04,SSE,158,7.2,7.2,84,0.00,,,0.00,VWS V14.01,2013-07-27 16:34:00,
2013-07-27 12:35:00,77.5,72.3,30.04,SSE,167,4.0,7.2,84,0.00,,,0.00,VWS V14.01,2013-07-27 16:35:00,
2013-07-27 12:39:00,77.7,72.2,30.04,South,173,5.4,6.3,83,0.00,,,0.00,VWS V14.01,2013-07-27 16:39:00,
2013-07-27 12:40:00,77.7,72.2,30.04,SSE,159,6.3,6.3,83,0.00,,,0.00,VWS V14.01,2013-07-27 16:40:00,
2013-07-27 12:44:00,78.1,72.1,30.04,SSE,156,4.0,6.3,82,0.00,,,0.00,VWS V14.01,2013-07-27 16:44:00,
2013-07-27 12:45:00,78.1,72.1,30.04,SSW,198,6.3,6.7,82,0.00,,,0.00,VWS V14.01,2013-07-27 16:45:00,
2013-07-27 12:49:00,78.3,72.0,30.04,South,173,3.1,6.3,81,0.00,,,0.00,VWS V14.01,2013-07-27 16:49:00,
2013-07-27 12:50:00,78.1,71.4,30.04,SSE,157,6.3,6.3,80,0.00,,,0.00,VWS V14.01,2013-07-27 16:50:00,
2013-07-27 12:54:00,77.9,70.9,30.04,South,171,3.6,6.3,79,0.00,,,0.00,VWS V14.01,2013-07-27 16:54:00,
2013-07-27 12:55:00,77.9,70.9,30.04,South,171,3.1,6.3,79,0.00,,,0.00,VWS V14.01,2013-07-27 16:55:00,
2013-07-27 12:59:00,78.1,70.7,30.04,SSE,158,4.9,5.8,78,0.00,,,0.00,VWS V14.01,2013-07-27 16:59:00,
2013-07-27 13:00:00,77.9,70.5,30.04,SSE,158,3.6,5.8,78,0.00,,,0.00,VWS V14.01,2013-07-27 17:00:00,
2013-07-27 13:04:00,78.4,70.6,30.04,SSE,159,4.9,7.6,77,0.00,,,0.00,VWS V14.01,2013-07-27 17:04:00,
2013-07-27 13:05:00,78.4,70.6,30.04,SSE,159,3.1,7.6,77,0.00,,,0.00,VWS V14.01,2013-07-27 17:05:00,
2013-07-27 13:09:00,79.2,70.6,30.04,SSE,157,5.8,6.3,75,0.00,,,0.00,VWS V14.01,2013-07-27 17:09:00,
2013-07-27 13:10:00,79.2,70.6,30.04,SSE,156,5.8,6.3,75,0.00,,,0.00,VWS V14.01,2013-07-27 17:10:00,
2013-07-27 13:14:00,79.2,69.8,30.04,SSE,168,5.4,6.3,73,0.00,,,0.00,VWS V14.01,2013-07-27 17:14:00,
2013-07-27 13:15:00,79.2,69.8,30.04,South,169,5.4,6.3,73,0.00,,,0.00,VWS V14.01,2013-07-27 17:15:00,
2013-07-27 13:19:00,78.4,68.3,30.04,SSE,165,3.1,6.3,71,0.00,,,0.00,VWS V14.01,2013-07-27 17:19:00,
2013-07-27 13:20:00,78.4,68.3,30.04,SSE,165,2.7,6.3,71,0.00,,,0.00,VWS V14.01,2013-07-27 17:20:00,
2013-07-27 13:24:00,77.9,66.9,30.04,SSE,165,2.7,4.0,69,0.00,,,0.00,VWS V14.01,2013-07-27 17:24:00,
2013-07-27 13:25:00,77.9,66.9,30.04,SSE,165,3.6,4.0,69,0.00,,,0.00,VWS V14.01,2013-07-27 17:25:00,
2013-07-27 13:29:00,78.6,67.2,30.04,South,186,2.7,3.6,68,0.00,,,0.00,VWS V14.01,2013-07-27 17:29:00,
2013-07-27 13:30:00,78.6,67.2,30.04,South,186,2.2,3.6,68,0.00,,,0.00,VWS V14.01,2013-07-27 17:30:00,
2013-07-27 13:35:00,79.0,67.1,30.04,South,189,3.1,3.1,67,0.00,,,0.00,VWS V14.01,2013-07-27 17:35:00,
2013-07-27 13:40:00,78.4,66.2,30.04,South,189,2.2,3.1,66,0.00,,,0.00,VWS V14.01,2013-07-27 17:40:00,
2013-07-27 13:45:00,79.0,65.3,30.04,SW,215,2.2,5.8,63,0.00,,,0.00,VWS V14.01,2013-07-27 17:45:00,
2013-07-27 13:50:00,78.4,64.3,30.04,South,173,2.2,3.6,62,0.00,,,0.00,VWS V14.01,2013-07-27 17:50:00,
2013-07-27 13:55:00,78.1,63.1,30.04,South,175,5.4,5.8,60,0.00,,,0.00,VWS V14.01,2013-07-27 17:55:00,
2013-07-27 14:00:00,79.3,63.8,30.04,South,172,0.0,0.0,59,0.00,,,0.00,VWS V14.01,2013-07-27 18:00:00,
2013-07-27 14:05:00,80.4,64.3,30.01,SE,127,0.0,0.0,58,0.00,,,0.00,VWS V14.01,2013-07-27 18:05:00,
2013-07-27 14:10:00,80.8,63.6,30.01,SSE,159,4.0,4.0,56,0.00,,,0.00,VWS V14.01,2013-07-27 18:10:00,
2013-07-27 14:15:00,81.0,63.3,30.01,South,175,3.6,4.0,55,0.00,,,0.00,VWS V14.01,2013-07-27 18:15:00,
2013-07-27 14:20:00,81.1,62.9,30.01,SSE,163,0.0,4.9,54,0.00,,,0.00,VWS V14.01,2013-07-27 18:20:00,
2013-07-27 14:25:00,81.0,61.7,30.01,SSE,163,4.9,6.3,52,0.00,,,0.00,VWS V14.01,2013-07-27 18:25:00,
2013-07-27 14:30:00,79.7,60.5,30.01,SSE,157,2.7,2.7,52,0.00,,,0.00,VWS V14.01,2013-07-27 18:30:00,
2013-07-27 14:35:00,80.2,61.0,30.01,South,177,6.3,6.3,52,0.00,,,0.00,VWS V14.01,2013-07-27 18:35:00,
2013-07-27 14:40:00,81.0,61.2,30.01,SSE,160,4.0,4.9,51,0.00,,,0.00,VWS V14.01,2013-07-27 18:40:00,
2013-07-27 14:45:00,81.3,61.5,30.01,SSE,149,5.4,5.8,51,0.00,,,0.00,VWS V14.01,2013-07-27 18:45:00,
2013-07-27 14:50:00,81.1,61.3,30.01,SSE,154,4.9,5.8,51,0.00,,,0.00,VWS V14.01,2013-07-27 18:50:00,
2013-07-27 14:55:00,81.0,60.6,30.01,SSE,148,4.0,5.8,50,0.00,,,0.00,VWS V14.01,2013-07-27 18:55:00,
2013-07-27 14:56:00,81.0,60.6,30.01,SSE,162,5.4,6.3,50,0.00,,,0.00,VWS V14.01,2013-07-27 18:56:00,
2013-07-27 15:00:00,81.3,60.9,30.01,SSE,167,3.6,6.3,50,0.00,,,0.00,VWS V14.01,2013-07-27 19:00:00,
2013-07-27 15:01:00,81.5,61.1,30.01,SSE,167,5.4,5.4,50,0.00,,,0.00,VWS V14.01,2013-07-27 19:01:00,
2013-07-27 15:05:00,81.7,61.2,30.01,South,173,3.1,5.4,50,0.00,,,0.00,VWS V14.01,2013-07-27 19:05:00,
2013-07-27 15:06:00,81.7,61.2,30.01,SSE,162,4.0,5.4,50,0.00,,,0.00,VWS V14.01,2013-07-27 19:06:00,
2013-07-27 15:10:00,82.0,61.6,30.01,West,276,0.0,5.4,50,0.00,,,0.00,VWS V14.01,2013-07-27 19:10:00,
2013-07-27 15:11:00,82.0,61.6,30.01,West,270,2.7,4.9,50,0.00,,,0.00,VWS V14.01,2013-07-27 19:11:00,
2013-07-27 15:15:00,81.9,60.8,30.01,South,171,4.0,6.3,49,0.00,,,0.00,VWS V14.01,2013-07-27 19:15:00,
2013-07-27 15:16:00,81.7,60.1,30.01,South,171,2.7,4.0,48,0.00,,,0.00,VWS V14.01,2013-07-27 19:16:00,
2013-07-27 15:20:00,82.0,61.0,30.01,South,172,5.8,5.8,49,0.00,,,0.00,VWS V14.01,2013-07-27 19:20:00,
2013-07-27 15:21:00,81.3,59.8,30.01,SSE,166,4.0,5.8,48,0.00,,,0.00,VWS V14.01,2013-07-27 19:21:00,
2013-07-27 15:25:00,80.8,59.3,30.01,SSE,167,4.0,5.8,48,0.00,,,0.00,VWS V14.01,2013-07-27 19:25:00,
2013-07-27 15:27:00,81.0,59.4,30.01,SSE,167,3.1,5.4,48,0.00,,,0.00,VWS V14.01,2013-07-27 19:27:00,
2013-07-27 15:30:00,81.0,59.4,30.01,SSE,154,6.3,6.3,48,0.00,,,0.00,VWS V14.01,2013-07-27 19:30:00,
2013-07-27 15:32:00,81.3,59.8,30.01,SSE,160,3.1,6.3,48,0.00,,,0.00,VWS V14.01,2013-07-27 19:32:00,
2013-07-27 15:35:00,81.5,59.3,30.01,SE,129,3.6,6.3,47,0.00,,,0.00,VWS V14.01,2013-07-27 19:35:00,
2013-07-27 15:37:00,81.1,59.6,30.01,WSW,243,3.6,5.4,48,0.00,,,0.00,VWS V14.01,2013-07-27 19:37:00,
2013-07-27 15:40:00,81.3,59.8,30.01,SSE,166,4.9,5.4,48,0.00,,,0.00,VWS V14.01,2013-07-27 19:40:00,
2013-07-27 15:42:00,81.3,59.8,30.01,SSE,166,3.6,5.4,48,0.00,,,0.00,VWS V14.01,2013-07-27 19:42:00,
2013-07-27 15:45:00,81.0,59.4,30.01,SW,216,4.0,5.4,48,0.00,,,0.00,VWS V14.01,2013-07-27 19:45:00,
2013-07-27 15:47:00,81.1,59.6,30.01,SSW,202,2.7,4.0,48,0.00,,,0.00,VWS V14.01,2013-07-27 19:47:00,
2013-07-27 15:50:00,81.1,59.6,29.98,SSE,155,4.0,5.4,48,0.00,,,0.00,VWS V14.01,2013-07-27 19:50:00,
2013-07-27 15:52:00,81.3,59.8,29.98,SE,127,3.6,5.8,48,0.00,,,0.00,VWS V14.01,2013-07-27 19:52:00,
2013-07-27 15:55:00,81.0,58.9,29.98,SSE,163,5.8,5.8,47,0.00,,,0.00,VWS V14.01,2013-07-27 19:55:00,
2013-07-27 15:57:00,81.0,59.4,29.98,SSE,152,6.3,6.3,48,0.00,,,0.00,VWS V14.01,2013-07-27 19:57:00,
2013-07-27 16:00:00,80.6,58.5,29.98,South,172,5.4,6.3,47,0.00,,,0.00,VWS V14.01,2013-07-27 20:00:00,
2013-07-27 16:02:00,80.6,58.5,29.98,SSE,159,5.4,5.8,47,0.00,,,0.00,VWS V14.01,2013-07-27 20:02:00,
2013-07-27 16:05:00,80.4,58.4,29.98,South,180,3.6,5.8,47,0.00,,,0.00,VWS V14.01,2013-07-27 20:05:00,
2013-07-27 16:07:00,80.4,58.4,29.98,SSE,159,6.3,6.3,47,0.00,,,0.00,VWS V14.01,2013-07-27 20:07:00,
2013-07-27 16:10:00,80.4,58.4,29.98,SSE,159,3.1,6.3,47,0.00,,,0.00,VWS V14.01,2013-07-27 20:10:00,
2013-07-27 16:12:00,80.1,58.6,29.98,SSW,196,2.7,4.0,48,0.00,,,0.00,VWS V14.01,2013-07-27 20:12:00,
2013-07-27 16:15:00,79.9,58.5,29.98,SSE,155,5.8,5.8,48,0.00,,,0.00,VWS V14.01,2013-07-27 20:15:00,
2013-07-27 16:17:00,79.7,58.3,29.98,South,176,3.1,5.8,48,0.00,,,0.00,VWS V14.01,2013-07-27 20:17:00,
2013-07-27 16:20:00,79.5,58.1,29.98,SSW,203,2.7,5.8,48,0.00,,,0.00,VWS V14.01,2013-07-27 20:20:00,
2013-07-27 16:22:00,79.5,58.7,29.98,SSW,198,0.0,3.6,49,0.00,,,0.00,VWS V14.01,2013-07-27 20:22:00,
2013-07-27 16:25:00,79.5,58.7,29.98,SSW,198,2.2,3.6,49,0.00,,,0.00,VWS V14.01,2013-07-27 20:25:00,
2013-07-27 16:27:00,79.7,58.9,29.98,SSW,198,2.7,3.6,49,0.00,,,0.00,VWS V14.01,2013-07-27 20:27:00,
2013-07-27 16:30:00,80.1,59.2,29.98,SSW,198,0.0,3.6,49,0.00,,,0.00,VWS V14.01,2013-07-27 20:30:00,
2013-07-27 16:32:00,80.2,59.9,29.98,SSW,198,2.7,3.6,50,0.00,,,0.00,VWS V14.01,2013-07-27 20:32:00,
2013-07-27 16:35:00,80.2,59.9,29.98,SSW,198,0.0,3.6,50,0.00,,,0.00,VWS V14.01,2013-07-27 20:35:00,
2013-07-27 16:37:00,80.1,59.8,29.98,SSW,198,0.0,0.0,50,0.00,,,0.00,VWS V14.01,2013-07-27 20:37:00,
2013-07-27 16:40:00,80.1,59.8,29.98,South,175,3.1,3.6,50,0.00,,,0.00,VWS V14.01,2013-07-27 20:40:00,
2013-07-27 16:42:00,80.4,59.5,29.98,South,174,3.6,4.0,49,0.00,,,0.00,VWS V14.01,2013-07-27 20:42:00,
2013-07-27 16:45:00,80.4,59.5,29.98,SSE,159,3.6,4.9,49,0.00,,,0.00,VWS V14.01,2013-07-27 20:45:00,
2013-07-27 16:47:00,80.4,59.0,29.98,SSE,160,2.2,4.0,48,0.00,,,0.00,VWS V14.01,2013-07-27 20:47:00,
2013-07-27 16:50:00,80.4,59.0,29.98,SSE,147,3.6,4.0,48,0.00,,,0.00,VWS V14.01,2013-07-27 20:50:00,
2013-07-27 16:52:00,80.2,58.8,29.98,SE,140,3.1,4.5,48,0.00,,,0.00,VWS V14.01,2013-07-27 20:52:00,
2013-07-27 16:55:00,79.9,58.5,29.98,SSE,155,4.0,4.9,48,0.00,,,0.00,VWS V14.01,2013-07-27 20:55:00,
2013-07-27 16:57:00,79.7,58.3,29.98,SSE,155,3.6,4.0,48,0.00,,,0.00,VWS V14.01,2013-07-27 20:57:00,
2013-07-27 17:00:00,79.5,58.1,29.98,SSE,159,3.1,5.4,48,0.00,,,0.00,VWS V14.01,2013-07-27 21:00:00,
2013-07-27 17:02:00,79.3,58.0,29.98,SSE,167,3.1,4.0,48,0.00,,,0.00,VWS V14.01,2013-07-27 21:02:00,
2013-07-27 17:05:00,79.2,58.4,29.95,SSE,167,3.1,4.0,49,0.00,,,0.00,VWS V14.01,2013-07-27 21:05:00,
2013-07-27 17:07:00,79.2,58.4,29.95,SSE,167,0.0,3.1,49,0.00,,,0.00,VWS V14.01,2013-07-27 21:07:00,
2013-07-27 17:10:00,79.0,58.2,29.95,SSE,167,2.7,4.0,49,0.00,,,0.00,VWS V14.01,2013-07-27 21:10:00,
2013-07-27 17:12:00,78.8,58.6,29.95,SSE,167,0.0,3.1,50,0.00,,,0.00,VWS V14.01,2013-07-27 21:12:00,
2013-07-27 17:15:00,78.8,58.6,29.95,SSE,167,3.6,4.0,50,0.00,,,0.00,VWS V14.01,2013-07-27 21:15:00,
2013-07-27 17:17:00,78.8,58.6,29.95,SSE,167,0.0,3.6,50,0.00,,,0.00,VWS V14.01,2013-07-27 21:17:00,
2013-07-27 17:20:00,78.8,59.2,29.95,SSE,167,0.0,3.6,51,0.00,,,0.00,VWS V14.01,2013-07-27 21:20:00,
2013-07-27 17:22:00,78.8,59.2,29.95,SSE,167,0.0,2.7,51,0.00,,,0.00,VWS V14.01,2013-07-27 21:22:00,
2013-07-27 17:25:00,78.8,59.2,29.95,SSE,167,0.0,2.7,51,0.00,,,0.00,VWS V14.01,2013-07-27 21:25:00,
2013-07-27 17:27:00,79.0,59.9,29.95,SSE,167,0.0,0.0,52,0.00,,,0.00,VWS V14.01,2013-07-27 21:27:00,
2013-07-27 17:30:00,79.0,59.9,29.95,SSE,167,0.0,0.0,52,0.00,,,0.00,VWS V14.01,2013-07-27 21:30:00,
2013-07-27 17:32:00,79.2,60.0,29.95,SSE,167,0.0,0.0,52,0.00,,,0.00,VWS V14.01,2013-07-27 21:32:00,
2013-07-27 17:35:00,79.3,60.7,29.95,SSE,167,3.6,3.6,53,0.00,,,0.00,VWS V14.01,2013-07-27 21:35:00,
2013-07-27 17:37:00,79.5,60.9,29.95,SSE,167,0.0,3.6,53,0.00,,,0.00,VWS V14.01,2013-07-27 21:37:00,
2013-07-27 17:40:00,79.5,60.4,29.95,SSE,167,2.7,4.0,52,0.00,,,0.00,VWS V14.01,2013-07-27 21:40:00,
2013-07-27 17:42:00,79.3,60.2,29.95,SSE,153,2.7,5.4,52,0.00,,,0.00,VWS V14.01,2013-07-27 21:42:00,
2013-07-27 17:45:00,79.3,59.7,29.95,SSE,153,0.0,5.4,51,0.00,,,0.00,VWS V14.01,2013-07-27 21:45:00,
2013-07-27 17:47:00,79.2,59.5,29.95,SSE,153,2.2,3.6,51,0.00,,,0.00,VWS V14.01,2013-07-27 21:47:00,
2013-07-27 17:50:00,79.2,59.5,29.95,SSE,153,0.0,3.6,51,0.00,,,0.00,VWS V14.01,2013-07-27 21:50:00,
2013-07-27 17:53:00,79.0,59.3,29.95,SSE,153,0.0,0.0,51,0.00,,,0.00,VWS V14.01,2013-07-27 21:53:00,
2013-07-27 17:55:00,79.2,59.5,29.95,SSE,153,0.0,0.0,51,0.00,,,0.00,VWS V14.01,2013-07-27 21:55:00,
2013-07-27 17:58:00,79.0,59.3,29.95,SSE,153,0.0,0.0,51,0.00,,,0.00,VWS V14.01,2013-07-27 21:58:00,
2013-07-27 18:00:00,78.6,59.0,29.95,SSE,153,0.0,3.1,51,0.00,,,0.00,VWS V14.01,2013-07-27 22:00:00,
2013-07-27 18:03:00,78.6,59.5,29.95,SSE,153,2.7,2.7,52,0.00,,,0.00,VWS V14.01,2013-07-27 22:03:00,
2013-07-27 18:04:00,78.6,59.5,29.95,SSE,153,2.7,3.1,52,0.00,,,0.00,VWS V14.01,2013-07-27 22:04:00,
2013-07-27 18:05:00,78.6,59.5,29.95,SSE,153,2.7,3.1,52,0.00,,,0.00,VWS V14.01,2013-07-27 22:05:00,
2013-07-27 18:09:00,78.6,59.5,29.95,SSE,149,2.2,4.0,52,0.00,,,0.00,VWS V14.01,2013-07-27 22:09:00,
2013-07-27 18:10:00,78.4,59.4,29.95,SSE,149,2.2,4.0,52,0.00,,,0.00,VWS V14.01,2013-07-27 22:10:00,
2013-07-27 18:14:00,78.4,59.4,29.95,SSE,150,3.6,5.8,52,0.00,,,0.00,VWS V14.01,2013-07-27 22:14:00,
2013-07-27 18:15:00,78.4,59.4,29.95,SSE,150,2.7,5.8,52,0.00,,,0.00,VWS V14.01,2013-07-27 22:15:00,
2013-07-27 18:19:00,78.4,58.8,29.95,SSE,154,3.1,5.4,51,0.00,,,0.00,VWS V14.01,2013-07-27 22:19:00,
2013-07-27 18:20:00,78.4,58.8,29.95,SSE,154,2.7,5.4,51,0.00,,,0.00,VWS V14.01,2013-07-27 22:20:00,
2013-07-27 18:24:00,78.3,58.7,29.95,SSE,154,3.6,5.8,51,0.00,,,0.00,VWS V14.01,2013-07-27 22:24:00,
2013-07-27 18:25:00,78.3,58.7,29.95,SSE,154,2.7,5.8,51,0.00,,,0.00,VWS V14.01,2013-07-27 22:25:00,
2013-07-27 18:29:00,78.1,58.5,29.95,SSE,154,0.0,3.6,51,0.00,,,0.00,VWS V14.01,2013-07-27 22:29:00,
2013-07-27 18:30:00,78.1,58.0,29.95,SSE,154,0.0,3.6,50,0.00,,,0.00,VWS V14.01,2013-07-27 22:30:00,
2013-07-27 18:34:00,77.7,58.2,29.95,SSE,154,3.1,4.0,51,0.00,,,0.00,VWS V14.01,2013-07-27 22:34:00,
2013-07-27 18:35:00,77.7,58.2,29.95,SSE,154,2.2,4.0,51,0.00,,,0.00,VWS V14.01,2013-07-27 22:35:00,
2013-07-27 18:39:00,77.7,58.2,29.95,SSE,154,2.7,3.1,51,0.00,,,0.00,VWS V14.01,2013-07-27 22:39:00,
2013-07-27 18:40:00,77.7,58.2,29.95,SSE,154,3.1,3.1,51,0.00,,,0.00,VWS V14.01,2013-07-27 22:40:00,
2013-07-27 18:44:00,77.7,58.2,29.95,SSE,154,0.0,3.1,51,0.00,,,0.00,VWS V14.01,2013-07-27 22:44:00,
2013-07-27 18:45:00,77.7,58.2,29.95,SSE,154,0.0,3.1,51,0.00,,,0.00,VWS V14.01,2013-07-27 22:45:00,
2013-07-27 18:49:00,77.4,57.8,29.95,SSE,154,2.2,4.0,51,0.00,,,0.00,VWS V14.01,2013-07-27 22:49:00,
2013-07-27 18:50:00,77.4,57.8,29.95,SSE,154,0.0,4.0,51,0.00,,,0.00,VWS V14.01,2013-07-27 22:50:00,
2013-07-27 18:54:00,77.0,57.5,29.95,SSE,154,2.7,4.0,51,0.00,,,0.00,VWS V14.01,2013-07-27 22:54:00,
2013-07-27 18:55:00,77.0,57.5,29.95,SSE,154,3.1,4.0,51,0.00,,,0.00,VWS V14.01,2013-07-27 22:55:00,
2013-07-27 18:59:00,76.8,57.9,29.95,SSE,162,3.1,5.8,52,0.00,,,0.00,VWS V14.01,2013-07-27 22:59:00,
2013-07-27 19:00:00,76.8,57.9,29.95,SSE,162,2.7,5.8,52,0.00,,,0.00,VWS V14.01,2013-07-27 23:00:00,
2013-07-27 19:04:00,76.6,57.7,29.95,SE,145,2.7,4.9,52,0.00,,,0.00,VWS V14.01,2013-07-27 23:04:00,
2013-07-27 19:05:00,76.6,57.7,29.95,SE,145,2.7,4.9,52,0.00,,,0.00,VWS V14.01,2013-07-27 23:05:00,
2013-07-27 19:09:00,76.5,58.1,29.95,SSE,166,5.4,5.4,53,0.00,,,0.00,VWS V14.01,2013-07-27 23:09:00,
2013-07-27 19:10:00,76.5,58.1,29.95,SSE,152,5.4,5.4,53,0.00,,,0.00,VWS V14.01,2013-07-27 23:10:00,
2013-07-27 19:15:00,76.1,58.8,29.95,SE,143,2.2,6.3,55,0.00,,,0.00,VWS V14.01,2013-07-27 23:15:00,
2013-07-27 19:20:00,75.9,59.1,29.95,South,173,3.6,5.4,56,0.00,,,0.00,VWS V14.01,2013-07-27 23:20:00,
2013-07-27 19:25:00,75.6,59.3,29.95,South,169,2.7,3.6,57,0.00,,,0.00,VWS V14.01,2013-07-27 23:25:00,
2013-07-27 19:30:00,75.4,59.6,29.95,SSE,149,5.8,6.3,58,0.00,,,0.00,VWS V14.01,2013-07-27 23:30:00,
2013-07-27 19:35:00,75.2,59.4,29.98,SSE,164,3.6,5.8,58,0.00,,,0.00,VWS V14.01,2013-07-27 23:35:00,
2013-07-27 19:40:00,74.8,59.6,29.98,SSE,165,0.0,2.7,59,0.00,,,0.00,VWS V14.01,2013-07-27 23:40:00,
2013-07-27 19:45:00,74.7,59.4,29.98,SW,234,2.2,2.2,59,0.00,,,0.00,VWS V14.01,2013-07-27 23:45:00,
2013-07-27 19:50:00,74.5,59.7,29.98,SSE,166,0.0,0.0,60,0.00,,,0.00,VWS V14.01,2013-07-27 23:50:00,
2013-07-27 19:55:00,74.3,59.5,29.98,SE,126,4.0,6.3,60,0.00,,,0.00,VWS V14.01,2013-07-27 23:55:00,
2013-07-27 20:00:00,74.1,59.4,29.98,SSE,159,2.7,3.1,60,0.00,,,0.00,VWS V14.01,2013-07-28 00:00:00,
2013-07-27 20:05:00,73.8,59.0,29.98,South,183,3.6,4.9,60,0.00,,,0.00,VWS V14.01,2013-07-28 00:05:00,
2013-07-27 20:10:00,73.6,58.8,29.98,SSE,165,2.2,3.6,60,0.00,,,0.00,VWS V14.01,2013-07-28 00:10:00,
2013-07-27 20:15:00,73.4,58.7,29.98,South,181,3.1,3.6,60,0.00,,,0.00,VWS V14.01,2013-07-28 00:15:00,
2013-07-27 20:20:00,73.2,59.0,29.98,SSE,151,7.6,7.6,61,0.00,,,0.00,VWS V14.01,2013-07-28 00:20:00,
2013-07-27 20:25:00,73.0,58.8,29.98,SSE,152,2.7,3.1,61,0.00,,,0.00,VWS V14.01,2013-07-28 00:25:00,
2013-07-27 20:30:00,72.9,58.6,29.98,SSE,149,3.1,4.9,61,0.00,,,0.00,VWS V14.01,2013-07-28 00:30:00,
2013-07-27 20:35:00,72.5,58.3,29.98,SSE,156,7.6,7.6,61,0.00,,,0.00,VWS V14.01,2013-07-28 00:35:00,
2013-07-27 20:40:00,72.5,58.3,29.98,South,173,3.6,7.6,61,0.00,,,0.00,VWS V14.01,2013-07-28 00:40:00,
2013-07-27 20:41:00,72.3,58.1,29.98,SSW,206,4.0,4.9,61,0.00,,,0.00,VWS V14.01,2013-07-28 00:41:00,
2013-07-27 20:45:00,72.3,58.1,29.98,South,191,2.7,5.4,61,0.00,,,0.00,VWS V14.01,2013-07-28 00:45:00,
2013-07-27 20:46:00,72.3,58.1,29.98,South,184,3.1,3.6,61,0.00,,,0.00,VWS V14.01,2013-07-28 00:46:00,
2013-07-27 20:50:00,72.1,58.0,29.98,SSE,156,2.7,5.8,61,0.00,,,0.00,VWS V14.01,2013-07-28 00:50:00,
2013-07-27 20:51:00,72.0,57.8,29.98,SSE,156,3.1,3.1,61,0.00,,,0.00,VWS V14.01,2013-07-28 00:51:00,
2013-07-27 20:55:00,72.0,57.8,29.98,SSE,156,3.1,4.9,61,0.00,,,0.00,VWS V14.01,2013-07-28 00:55:00,
2013-07-27 20:56:00,71.8,57.6,29.98,SSE,156,2.7,4.0,61,0.00,,,0.00,VWS V14.01,2013-07-28 00:56:00,
2013-07-27 21:00:00,71.6,57.5,29.98,SSE,156,0.0,4.0,61,0.00,,,0.00,VWS V14.01,2013-07-28 01:00:00,
2013-07-27 21:01:00,71.6,57.5,29.98,SSE,156,2.7,4.0,61,0.00,,,0.00,VWS V14.01,2013-07-28 01:01:00,
2013-07-27 21:05:00,71.4,57.3,30.01,SSE,156,2.7,4.0,61,0.00,,,0.00,VWS V14.01,2013-07-28 01:05:00,
2013-07-27 21:06:00,71.4,57.3,30.01,SSE,156,0.0,2.7,61,0.00,,,0.00,VWS V14.01,2013-07-28 01:06:00,
2013-07-27 21:10:00,71.2,57.1,30.01,SSE,156,3.1,3.6,61,0.00,,,0.00,VWS V14.01,2013-07-28 01:10:00,
2013-07-27 21:11:00,71.2,57.1,30.01,SSE,156,0.0,3.6,61,0.00,,,0.00,VWS V14.01,2013-07-28 01:11:00,
2013-07-27 21:15:00,71.2,57.1,30.01,SSE,157,0.0,4.9,61,0.00,,,0.00,VWS V14.01,2013-07-28 01:15:00,
2013-07-27 21:16:00,71.1,57.0,30.01,SSE,157,2.7,2.7,61,0.00,,,0.00,VWS V14.01,2013-07-28 01:16:00,
2013-07-27 21:20:00,71.1,57.0,30.01,SSE,158,3.1,3.6,61,0.00,,,0.00,VWS V14.01,2013-07-28 01:20:00,
2013-07-27 21:22:00,70.9,56.8,30.01,SSE,158,2.7,3.6,61,0.00,,,0.00,VWS V14.01,2013-07-28 01:22:00,
2013-07-27 21:25:00,70.9,56.8,30.01,SSE,158,2.2,4.0,61,0.00,,,0.00,VWS V14.01,2013-07-28 01:25:00,
2013-07-27 21:27:00,70.7,56.6,30.01,SSE,158,2.2,3.1,61,0.00,,,0.00,VWS V14.01,2013-07-28 01:27:00,
2013-07-27 21:30:00,70.7,56.6,30.01,SSE,157,3.1,4.0,61,0.00,,,0.00,VWS V14.01,2013-07-28 01:30:00,
2013-07-27 21:32:00,70.7,57.1,30.01,SSE,157,2.7,3.1,62,0.00,,,0.00,VWS V14.01,2013-07-28 01:32:00,
2013-07-27 21:35:00,70.5,56.9,29.98,SSE,157,3.1,3.6,62,0.00,,,0.00,VWS V14.01,2013-07-28 01:35:00,
2013-07-27 21:37:00,70.5,56.9,29.98,SSE,158,2.2,4.9,62,0.00,,,0.00,VWS V14.01,2013-07-28 01:37:00,
2013-07-27 21:40:00,70.3,56.7,29.98,SSE,158,3.6,4.9,62,0.00,,,0.00,VWS V14.01,2013-07-28 01:40:00,
2013-07-27 21:42:00,70.3,56.7,29.98,SSE,158,3.6,4.0,62,0.00,,,0.00,VWS V14.01,2013-07-28 01:42:00,
2013-07-27 21:45:00,70.2,56.5,29.98,SSE,163,5.4,5.4,62,0.00,,,0.00,VWS V14.01,2013-07-28 01:45:00,
2013-07-27 21:47:00,70.2,56.5,29.98,SSE,166,3.6,5.4,62,0.00,,,0.00,VWS V14.01,2013-07-28 01:47:00,
2013-07-27 21:50:00,70.0,56.4,29.98,SSE,166,3.6,5.4,62,0.00,,,0.00,VWS V14.01,2013-07-28 01:50:00,
2013-07-27 21:52:00,70.0,56.4,29.98,SSE,166,4.0,4.5,62,0.00,,,0.00,VWS V14.01,2013-07-28 01:52:00,
2013-07-27 21:55:00,70.0,56.4,29.98,SSE,166,3.1,4.5,62,0.00,,,0.00,VWS V14.01,2013-07-28 01:55:00,
2013-07-27 21:57:00,69.8,56.2,29.98,SSE,166,2.7,3.6,62,0.00,,,0.00,VWS V14.01,2013-07-28 01:57:00,
2013-07-27 22:00:00,69.8,56.2,29.98,SSE,166,2.7,3.6,62,0.00,,,0.00,VWS V14.01,2013-07-28 02:00:00,
2013-07-27 22:02:00,69.8,56.2,29.98,SSE,166,0.0,3.1,62,0.00,,,0.00,VWS V14.01,2013-07-28 02:02:00,
2013-07-27 22:05:00,69.6,56.5,30.01,West,274,3.6,3.6,63,0.00,,,0.00,VWS V14.01,2013-07-28 02:05:00,
2013-07-27 22:07:00,69.6,56.5,30.01,West,261,3.6,4.0,63,0.00,,,0.00,VWS V14.01,2013-07-28 02:07:00,
2013-07-27 22:10:00,69.6,56.5,30.01,West,269,0.0,5.4,63,0.00,,,0.00,VWS V14.01,2013-07-28 02:10:00,
2013-07-27 22:12:00,69.6,56.5,30.01,West,273,2.7,4.0,63,0.00,,,0.00,VWS V14.01,2013-07-28 02:12:00,
2013-07-27 22:15:00,69.6,56.5,30.01,West,273,0.0,4.0,63,0.00,,,0.00,VWS V14.01,2013-07-28 02:15:00,
2013-07-27 22:17:00,69.6,56.5,30.01,West,273,0.0,0.0,63,0.00,,,0.00,VWS V14.01,2013-07-28 02:17:00,
2013-07-27 22:20:00,69.4,56.3,29.98,West,273,0.0,3.1,63,0.00,,,0.00,VWS V14.01,2013-07-28 02:20:00,
2013-07-27 22:22:00,69.4,56.8,29.98,WSW,254,4.9,4.9,64,0.00,,,0.00,VWS V14.01,2013-07-28 02:22:00,
2013-07-27 22:25:00,69.4,56.8,29.98,West,262,0.0,4.9,64,0.00,,,0.00,VWS V14.01,2013-07-28 02:25:00,
2013-07-27 22:27:00,69.4,56.8,29.98,West,262,0.0,0.0,64,0.00,,,0.00,VWS V14.01,2013-07-28 02:27:00,
2013-07-27 22:30:00,69.4,56.8,29.98,West,262,0.0,0.0,64,0.00,,,0.00,VWS V14.01,2013-07-28 02:30:00,
2013-07-27 22:32:00,69.3,56.6,29.98,West,262,0.0,0.0,64,0.00,,,0.00,VWS V14.01,2013-07-28 02:32:00,
2013-07-27 22:35:00,69.3,56.6,29.98,West,262,0.0,0.0,64,0.00,,,0.00,VWS V14.01,2013-07-28 02:35:00,
2013-07-27 22:37:00,69.3,56.6,29.98,West,262,0.0,0.0,64,0.00,,,0.00,VWS V14.01,2013-07-28 02:37:00,
2013-07-27 22:40:00,69.3,56.6,29.98,West,262,0.0,0.0,64,0.00,,,0.00,VWS V14.01,2013-07-28 02:40:00,
2013-07-27 22:42:00,69.1,56.4,29.98,West,262,2.7,3.1,64,0.00,,,0.00,VWS V14.01,2013-07-28 02:42:00,
2013-07-27 22:45:00,69.1,56.4,29.98,West,262,0.0,3.1,64,0.00,,,0.00,VWS V14.01,2013-07-28 02:45:00,
2013-07-27 22:47:00,69.1,56.8,29.98,West,262,0.0,3.6,65,0.00,,,0.00,VWS V14.01,2013-07-28 02:47:00,
2013-07-27 22:50:00,69.1,56.8,29.98,West,262,0.0,3.6,65,0.00,,,0.00,VWS V14.01,2013-07-28 02:50:00,
2013-07-27 22:52:00,69.1,56.8,29.98,West,262,0.0,0.0,65,0.00,,,0.00,VWS V14.01,2013-07-28 02:52:00,
2013-07-27 22:55:00,68.9,56.7,29.98,West,262,0.0,0.0,65,0.00,,,0.00,VWS V14.01,2013-07-28 02:55:00,
2013-07-27 22:57:00,68.9,56.7,29.98,West,262,0.0,0.0,65,0.00,,,0.00,VWS V14.01,2013-07-28 02:57:00,
2013-07-27 23:00:00,68.9,56.7,29.98,West,262,0.0,0.0,65,0.00,,,0.00,VWS V14.01,2013-07-28 03:00:00,
2013-07-27 23:02:00,68.9,56.7,29.98,West,262,0.0,0.0,65,0.00,,,0.00,VWS V14.01,2013-07-28 03:02:00,
2013-07-27 23:05:00,68.9,56.7,29.98,West,262,0.0,0.0,65,0.00,,,0.00,VWS V14.01,2013-07-28 03:05:00,
2013-07-27 23:08:00,68.9,56.7,29.98,West,262,0.0,0.0,65,0.00,,,0.00,VWS V14.01,2013-07-28 03:08:00,
2013-07-27 23:10:00,68.9,57.1,29.98,West,262,0.0,0.0,66,0.00,,,0.00,VWS V14.01,2013-07-28 03:10:00,
2013-07-27 23:13:00,68.7,56.9,29.98,West,262,0.0,0.0,66,0.00,,,0.00,VWS V14.01,2013-07-28 03:13:00,
2013-07-27 23:15:00,68.5,56.7,29.98,West,262,3.1,3.1,66,0.00,,,0.00,VWS V14.01,2013-07-28 03:15:00,
2013-07-27 23:18:00,68.5,56.7,29.98,West,262,2.7,3.1,66,0.00,,,0.00,VWS V14.01,2013-07-28 03:18:00,
2013-07-27 23:20:00,68.4,56.6,29.98,West,262,2.2,3.1,66,0.00,,,0.00,VWS V14.01,2013-07-28 03:20:00,
2013-07-27 23:23:00,68.4,56.6,29.98,West,262,0.0,3.1,66,0.00,,,0.00,VWS V14.01,2013-07-28 03:23:00,
2013-07-27 23:25:00,68.4,56.6,29.98,SSW,213,0.0,3.1,66,0.00,,,0.00,VWS V14.01,2013-07-28 03:25:00,
2013-07-27 23:28:00,68.4,57.0,29.98,SSW,212,0.0,3.1,67,0.00,,,0.00,VWS V14.01,2013-07-28 03:28:00,
2013-07-27 23:30:00,68.4,57.0,29.98,SSW,212,0.0,3.1,67,0.00,,,0.00,VWS V14.01,2013-07-28 03:30:00,
2013-07-27 23:33:00,68.2,56.8,29.98,SSW,212,0.0,0.0,67,0.00,,,0.00,VWS V14.01,2013-07-28 03:33:00,
2013-07-27 23:35:00,68.2,56.8,29.98,SSW,212,0.0,0.0,67,0.00,,,0.00,VWS V14.01,2013-07-28 03:35:00,
2013-07-27 23:38:00,68.2,56.8,29.98,SSW,212,0.0,0.0,67,0.00,,,0.00,VWS V14.01,2013-07-28 03:38:00,
2013-07-27 23:40:00,68.2,56.8,29.98,SSW,212,0.0,0.0,67,0.00,,,0.00,VWS V14.01,2013-07-28 03:40:00,
2013-07-27 23:43:00,68.2,56.8,29.98,SSW,212,0.0,0.0,67,0.00,,,0.00,VWS V14.01,2013-07-28 03:43:00,
2013-07-27 23:45:00,68.2,57.2,29.98,SSW,212,0.0,0.0,68,0.00,,,0.00,VWS V14.01,2013-07-28 03:45:00,
2013-07-27 23:48:00,68.2,57.2,29.95,SSW,212,0.0,0.0,68,0.00,,,0.00,VWS V14.01,2013-07-28 03:48:00,
2013-07-27 23:50:00,68.2,57.2,29.95,SSW,212,0.0,0.0,68,0.00,,,0.00,VWS V14.01,2013-07-28 03:50:00,
2013-07-27 23:53:00,68.2,57.2,29.95,SSW,212,0.0,0.0,68,0.00,,,0.00,VWS V14.01,2013-07-28 03:53:00,
2013-07-27 23:55:00,68.2,57.2,29.95,SSW,212,0.0,0.0,68,0.00,,,0.00,VWS V14.01,2013-07-28 03:55:00,
2013-07-27 23:58:00,68.0,57.1,29.95,SSW,212,0.0,0.0,68,0.00,,,0.00,VWS V14.01,2013-07-28 03:58:00,